createdAt,value
2023-03-03T00:03:30.516Z,100356.84
2023-03-03T00:07:46.382Z,100344.50
2023-03-03T00:12:26.663Z,100322.59
2023-03-03T00:16:39.515Z,100322.53
2023-03-03T00:21:01.345Z,100318.13
2023-03-03T00:25:34.609Z,100317.25
2023-03-03T00:29:51.434Z,100306.66
2023-03-03T00:34:20.369Z,100306.69
2023-03-03T00:38:37.168Z,100289.91
2023-03-03T00:42:55.502Z,100304.91
2023-03-03T00:47:31.595Z,100302.28
2023-03-03T00:51:44.776Z,100289.97
2023-03-03T00:55:58.627Z,100282.88
2023-03-03T01:00:15.819Z,100292.47
2023-03-03T01:04:31.935Z,100284.63
2023-03-03T01:08:46.462Z,100297.00
2023-03-03T01:12:59.021Z,100292.56
2023-03-03T01:17:11.404Z,100304.06
2023-03-03T01:21:25.078Z,100307.59
2023-03-03T01:25:37.687Z,100305.00
2023-03-03T01:29:50.693Z,100307.56
2023-03-03T01:34:04.378Z,100310.25
2023-03-03T01:38:18.943Z,100309.38
2023-03-03T01:42:31.914Z,100302.34
2023-03-03T01:47:19.460Z,100297.91
2023-03-03T01:51:37.228Z,100305.91
2023-03-03T01:55:51.974Z,100301.56
2023-03-03T02:00:06.526Z,100307.72
2023-03-03T02:04:26.931Z,100311.19
2023-03-03T02:08:59.504Z,100309.56
2023-03-03T02:13:11.940Z,100304.34
2023-03-03T02:17:25.003Z,100309.66
2023-03-03T02:21:37.391Z,100309.72
2023-03-03T02:26:00.580Z,100313.19
2023-03-03T02:30:20.417Z,100307.91
2023-03-03T02:34:46.173Z,100309.72
2023-03-03T02:39:18.625Z,100306.22
2023-03-03T02:43:42.774Z,100310.66
2023-03-03T02:47:55.849Z,100314.19
2023-03-03T02:52:10.550Z,100317.63
2023-03-03T02:56:25.761Z,100307.03
2023-03-03T03:00:38.215Z,100298.22
2023-03-03T03:04:50.624Z,100310.63
2023-03-03T03:09:09.094Z,100311.47
2023-03-03T03:13:21.504Z,100307.91
2023-03-03T03:17:34.651Z,100319.41
2023-03-03T03:21:47.208Z,100319.41
2023-03-03T03:26:00.545Z,100321.19
2023-03-03T03:30:17.702Z,100322.06
2023-03-03T03:34:30.326Z,100321.19
2023-03-03T03:38:43.634Z,100323.00
2023-03-03T03:42:56.899Z,100321.22
2023-03-03T03:47:09.577Z,100320.34
2023-03-03T03:51:22.692Z,100321.22
2023-03-03T03:55:35.405Z,100330.03
2023-03-03T03:59:50.582Z,100325.59
2023-03-03T04:04:04.616Z,100326.44
2023-03-03T04:08:17.452Z,100337.94
2023-03-03T04:12:36.568Z,100339.72
2023-03-03T04:16:49.047Z,100344.13
2023-03-03T04:21:02.797Z,100336.19
2023-03-03T04:25:17.515Z,100343.22
2023-03-03T04:29:33.999Z,100348.53
2023-03-03T04:33:49.017Z,100345.88
2023-03-03T04:38:02.200Z,100355.59
2023-03-03T04:42:15.772Z,100353.81
2023-03-03T04:46:28.944Z,100353.78
2023-03-03T04:50:43.760Z,100358.22
2023-03-03T04:54:56.173Z,100347.66
2023-03-03T04:59:08.777Z,100346.75
2023-03-03T05:03:22.027Z,100341.47
2023-03-03T05:07:35.723Z,100345.88
2023-03-03T05:11:51.944Z,100347.56
2023-03-03T05:16:04.766Z,100344.13
2023-03-03T05:20:17.353Z,100338.72
2023-03-03T05:24:29.943Z,100345.78
2023-03-03T05:28:42.318Z,100350.28
2023-03-03T05:32:54.822Z,100351.09
2023-03-03T05:37:07.260Z,100345.91
2023-03-03T05:41:19.676Z,100345.00
2023-03-03T05:45:32.125Z,100344.13
2023-03-03T05:49:44.480Z,100342.38
2023-03-03T05:53:56.791Z,100351.19
2023-03-03T05:58:09.175Z,100354.72
2023-03-03T06:02:21.752Z,100351.19
2023-03-03T06:06:34.296Z,100358.22
2023-03-03T06:10:46.781Z,100362.66
2023-03-03T06:15:00.425Z,100362.63
2023-03-03T06:19:12.808Z,100364.41
2023-03-03T06:23:25.409Z,100367.91
2023-03-03T06:27:37.829Z,100365.22
2023-03-03T06:31:50.205Z,100366.03
2023-03-03T06:36:05.363Z,100364.06
2023-03-03T06:40:18.508Z,100362.03
2023-03-03T06:44:30.913Z,100348.59
2023-03-03T06:48:43.269Z,100352.22
2023-03-03T06:53:16.705Z,100357.38
2023-03-03T06:57:32.157Z,100370.75
2023-03-03T07:01:47.059Z,100362.78
2023-03-03T07:05:59.456Z,100360.72
2023-03-03T07:10:29.789Z,100357.91
2023-03-03T07:14:45.063Z,100366.50
2023-03-03T07:19:05.751Z,100369.53
2023-03-03T07:23:20.844Z,100360.59
2023-03-03T07:27:33.368Z,100356.06
2023-03-03T07:31:50.464Z,100357.31
2023-03-03T07:36:04.528Z,100357.44
2023-03-03T07:40:35.757Z,100350.41
2023-03-03T07:44:50.963Z,100356.63
2023-03-03T07:49:16.735Z,100359.19
2023-03-03T07:53:35.096Z,100348.47
2023-03-03T07:57:47.567Z,100353.59
2023-03-03T08:02:00.944Z,100350.94
2023-03-03T08:06:42.288Z,100362.44
2023-03-03T08:10:59.675Z,100356.41
2023-03-03T08:15:19.973Z,100355.47
2023-03-03T08:19:32.611Z,100354.28
2023-03-03T08:23:45.274Z,100354.94
2023-03-03T08:27:58.306Z,100356.72
2023-03-03T08:32:10.750Z,100357.84
2023-03-03T08:36:23.249Z,100355.22
2023-03-03T08:40:36.671Z,100355.06
2023-03-03T08:44:49.127Z,100359.81
2023-03-03T08:49:01.479Z,100352.00
2023-03-03T08:53:14.840Z,100356.75
2023-03-03T08:57:27.197Z,100363.47
2023-03-03T09:01:39.585Z,100357.69
2023-03-03T09:05:52.017Z,100353.09
2023-03-03T09:10:05.235Z,100359.81
2023-03-03T09:14:19.291Z,100355.44
2023-03-03T09:18:38.372Z,100357.53
2023-03-03T09:22:51.501Z,100353.34
2023-03-03T09:27:32.052Z,100349.03
2023-03-03T09:32:10.741Z,100351.56
2023-03-03T09:36:35.892Z,100352.84
2023-03-03T09:41:21.815Z,100351.00
2023-03-03T09:45:40.371Z,100350.97
2023-03-03T09:50:07.256Z,100347.25
2023-03-03T09:54:34.590Z,100353.00
2023-03-03T09:59:11.102Z,100352.69
2023-03-03T10:03:48.020Z,100353.59
2023-03-03T10:08:21.709Z,100350.56
2023-03-03T10:12:54.406Z,100350.78
2023-03-03T10:17:21.741Z,100340.84
2023-03-03T10:21:46.345Z,100349.50
2023-03-03T10:26:08.813Z,100341.41
2023-03-03T10:31:10.180Z,100346.41
2023-03-03T10:35:41.869Z,100336.50
2023-03-03T10:40:28.708Z,100330.41
2023-03-03T10:45:03.102Z,100328.53
2023-03-03T10:49:35.226Z,100322.22
2023-03-03T10:54:30.772Z,100311.97
2023-03-03T10:58:46.802Z,100304.69
2023-03-03T11:03:36.921Z,100298.59
2023-03-03T11:08:06.625Z,100305.31
2023-03-03T11:12:47.848Z,100297.75
2023-03-03T11:17:21.276Z,100284.38
2023-03-03T11:21:48.101Z,100291.72
2023-03-03T11:26:07.754Z,100288.84
2023-03-03T11:30:59.271Z,100291.88
2023-03-03T11:35:40.801Z,100284.56
2023-03-03T11:39:58.154Z,100290.81
2023-03-03T11:44:18.625Z,100286.75
2023-03-03T11:48:55.061Z,100278.34
2023-03-03T11:53:24.934Z,100278.38
2023-03-03T11:57:48.598Z,100276.09
2023-03-03T12:02:24.111Z,100273.09
2023-03-03T12:06:51.893Z,100272.63
2023-03-03T12:11:13.149Z,100271.34
2023-03-03T12:15:55.728Z,100261.06
2023-03-03T12:20:42.872Z,100270.09
2023-03-03T12:25:19.378Z,100274.75
2023-03-03T12:29:41.783Z,100286.34
2023-03-03T12:34:19.596Z,100286.63
2023-03-03T12:38:50.046Z,100296.34
2023-03-03T12:43:38.734Z,100290.25
2023-03-03T12:47:58.975Z,100300.50
2023-03-03T12:52:18.988Z,100300.66
2023-03-03T12:56:51.340Z,100304.19
2023-03-03T13:01:28.643Z,100295.41
2023-03-03T13:05:59.177Z,100297.38
2023-03-03T13:10:30.308Z,100291.75
2023-03-03T13:15:31.740Z,100285.47
2023-03-03T13:20:00.348Z,100287.38
2023-03-03T13:24:24.368Z,100262.03
2023-03-03T13:28:52.144Z,100264.19
2023-03-03T13:33:22.983Z,100264.91
2023-03-03T13:37:52.997Z,100279.50
2023-03-03T13:42:19.065Z,100279.63
2023-03-03T13:47:00.267Z,100282.16
2023-03-03T13:51:48.561Z,100274.88
2023-03-03T13:56:21.127Z,100274.22
2023-03-03T14:00:39.458Z,100277.97
2023-03-03T14:04:59.224Z,100278.56
2023-03-03T14:09:27.467Z,100277.47
2023-03-03T14:14:12.255Z,100275.13
2023-03-03T14:18:39.493Z,100268.13
2023-03-03T14:23:10.151Z,100274.91
2023-03-03T14:27:33.628Z,100272.41
2023-03-03T14:31:46.382Z,100259.22
2023-03-03T14:35:58.801Z,100248.69
2023-03-03T14:40:23.182Z,100247.84
2023-03-03T14:44:53.993Z,100237.78
2023-03-03T14:49:28.106Z,100246.47
2023-03-03T14:53:45.030Z,100238.78
2023-03-03T14:57:58.373Z,100238.25
2023-03-03T15:02:16.912Z,100230.31
2023-03-03T15:06:36.764Z,100222.59
2023-03-03T15:10:49.003Z,100229.06
2023-03-03T15:15:09.480Z,100224.59
2023-03-03T15:19:55.677Z,100225.91
2023-03-03T15:24:16.415Z,100219.75
2023-03-03T15:28:56.586Z,100219.91
2023-03-03T15:33:30.936Z,100222.53
2023-03-03T15:37:54.616Z,100209.03
2023-03-03T15:42:27.521Z,100216.94
2023-03-03T15:46:50.730Z,100218.81
2023-03-03T15:51:28.780Z,100219.06
2023-03-03T15:56:03.174Z,100223.09
2023-03-03T16:00:35.954Z,100229.41
2023-03-03T16:04:55.430Z,100224.88
2023-03-03T16:10:03.306Z,100229.41
2023-03-03T16:14:47.906Z,100223.63
2023-03-03T16:19:24.354Z,100235.38
2023-03-03T16:23:52.602Z,100236.91
2023-03-03T16:28:24.800Z,100245.72
2023-03-03T16:32:43.054Z,100257.50
2023-03-03T16:37:14.972Z,100258.13
2023-03-03T16:41:51.821Z,100273.56
2023-03-03T16:46:32.179Z,100269.34
2023-03-03T16:51:10.491Z,100268.53
2023-03-03T16:55:45.772Z,100272.88
2023-03-03T17:00:09.889Z,100266.75
2023-03-03T17:05:05.561Z,100273.16
2023-03-03T17:09:40.331Z,100272.47
2023-03-03T17:14:06.971Z,100274.31
2023-03-03T17:18:58.030Z,100270.75
2023-03-03T17:23:47.732Z,100273.50
2023-03-03T17:28:17.709Z,100279.69
2023-03-03T17:32:37.409Z,100272.59
2023-03-03T17:37:28.371Z,100286.59
2023-03-03T17:42:01.627Z,100289.22
2023-03-03T17:46:42.146Z,100289.34
2023-03-03T17:51:16.421Z,100295.50
2023-03-03T17:55:49.835Z,100289.44
2023-03-03T18:00:19.185Z,100285.06
2023-03-03T18:05:04.160Z,100299.19
2023-03-03T18:09:46.406Z,100296.59
2023-03-03T18:14:21.851Z,100297.53
2023-03-03T18:19:07.672Z,100282.72
2023-03-03T18:23:44.779Z,100292.53
2023-03-03T18:27:59.803Z,100285.44
2023-03-03T18:32:22.079Z,100274.97
2023-03-03T18:36:34.487Z,100274.13
2023-03-03T18:41:09.735Z,100280.28
2023-03-03T18:45:25.964Z,100278.38
2023-03-03T18:49:57.200Z,100280.88
2023-03-03T18:54:12.953Z,100280.03
2023-03-03T18:58:36.289Z,100282.81
2023-03-03T19:02:56.670Z,100276.66
2023-03-03T19:07:17.134Z,100282.03
2023-03-03T19:11:36.984Z,100286.19
2023-03-03T19:15:55.619Z,100276.63
2023-03-03T19:20:15.593Z,100279.47
2023-03-03T19:24:30.431Z,100281.19
2023-03-03T19:29:08.185Z,100279.38
2023-03-03T19:33:26.965Z,100279.50
2023-03-03T19:37:51.630Z,100290.94
2023-03-03T19:43:00.800Z,100296.22
2023-03-03T19:47:22.072Z,100296.97
2023-03-03T19:51:53.238Z,100283.72
2023-03-03T19:56:23.542Z,100274.88
2023-03-03T20:00:42.630Z,100274.91
2023-03-03T20:05:16.473Z,100287.38
2023-03-03T20:09:47.513Z,100283.78
2023-03-03T20:14:38.325Z,100282.84
2023-03-03T20:19:09.750Z,100278.56
2023-03-03T20:23:30.715Z,100274.06
2023-03-03T20:28:06.180Z,100268.78
2023-03-03T20:33:08.537Z,100274.06
2023-03-03T20:38:06.178Z,100267.84
2023-03-03T20:42:33.519Z,100266.97
2023-03-03T20:47:10.147Z,100259.03
2023-03-03T20:51:43.073Z,100253.03
2023-03-03T20:56:20.439Z,100251.34
2023-03-03T21:00:51.486Z,100244.41
2023-03-03T21:05:13.602Z,100232.78
2023-03-03T21:09:32.256Z,100227.69
2023-03-03T21:13:57.309Z,100234.81
2023-03-03T21:18:25.466Z,100235.69
2023-03-03T21:22:37.940Z,100235.75
2023-03-03T21:26:57.674Z,100236.56
2023-03-03T21:31:17.876Z,100237.41
2023-03-03T21:35:30.299Z,100220.59
2023-03-03T21:39:44.516Z,100224.09
2023-03-03T21:43:57.049Z,100235.63
2023-03-03T21:48:10.456Z,100229.41
2023-03-03T21:52:23.272Z,100223.84
2023-03-03T21:56:38.368Z,100220.38
2023-03-03T22:00:50.810Z,100230.19
2023-03-03T22:05:07.847Z,100223.22
2023-03-03T22:09:20.539Z,100226.78
2023-03-03T22:13:32.945Z,100228.44
2023-03-03T22:17:45.615Z,100224.88
2023-03-03T22:21:58.008Z,100222.28
2023-03-03T22:26:10.409Z,100216.22
2023-03-03T22:30:22.784Z,100211.66
2023-03-03T22:34:35.170Z,100209.88
2023-03-03T22:38:48.242Z,100209.94
2023-03-03T22:43:00.975Z,100208.28
2023-03-03T22:47:13.357Z,100212.69
2023-03-03T22:51:28.855Z,100209.13
2023-03-03T22:55:41.374Z,100207.31
2023-03-03T22:59:53.810Z,100204.75
2023-03-03T23:04:06.255Z,100197.03
2023-03-03T23:08:21.597Z,100196.19
2023-03-03T23:12:34.032Z,100194.22
2023-03-03T23:16:47.602Z,100201.28
2023-03-03T23:20:59.984Z,100201.28
2023-03-03T23:25:12.548Z,100196.06
2023-03-03T23:29:25.221Z,100195.16
2023-03-03T23:33:37.567Z,100190.69
2023-03-03T23:37:50.155Z,100181.94
2023-03-03T23:42:02.630Z,100184.59
2023-03-03T23:46:15.563Z,100176.59
2023-03-03T23:50:28.102Z,100168.66
2023-03-03T23:54:40.473Z,100171.31
2023-03-03T23:58:52.855Z,100163.31
